Time;durP1;ratioP1;P1;durP2;ratioP2;P2;SDS_P1;SDS_P2;PMS_P1;PMS_P2;Temp;Humidity;BMP_temperature;BMP_pressure;BME280_temperature;BME280_humidity;BME280_pressure;Samples;Min_cycle;Max_cycle;Signal;HPM_P1;HPM_P2
2023/05/14 00:00:59;;;;;;;31.90;21.50;;;;;;;;;;107780;1253;22518;-77
2023/05/14 00:03:28;;;;;;;33.50;18.20;;;;;;;;;;107689;1251;22529;-77
2023/05/14 00:05:54;;;;;;;29.70;18.50;;;;;;;;;;107731;1251;22848;-77
2023/05/14 00:08:21;;;;;;;29.40;17.40;;;;;;;;;;107691;1251;24219;-77
2023/05/14 00:10:47;;;;;;;22.40;15.30;;;;;;;;;;107792;1251;23877;-79
2023/05/14 00:13:13;;;;;;;23.80;14.80;;;;;;;;;;107801;1251;24262;-78
2023/05/14 00:15:40;;;;;;;20.80;14.20;;;;;;;;;;107720;1253;25256;-77
2023/05/14 00:18:06;;;;;;;27.60;16.40;;;;;;;;;;107732;1251;22535;-79
2023/05/14 00:20:32;;;;;;;23.70;15.00;;;;;;;;;;107818;1253;22644;-78
2023/05/14 00:22:59;;;;;;;23.40;15.10;;;;;;;;;;107877;1251;23184;-80
2023/05/14 00:25:25;;;;;;;29.30;15.90;;;;;;;;;;107994;1251;22525;-77
2023/05/14 00:27:52;;;;;;;32.40;18.50;;;;;;;;;;107984;1251;23666;-79
2023/05/14 00:30:18;;;;;;;27.80;18.40;;;;;;;;;;108109;1252;22542;-77
2023/05/14 00:32:44;;;;;;;35.50;23.80;;;;;;;;;;107959;1247;25380;-77
2023/05/14 00:35:11;;;;;;;34.90;23.10;;;;;;;;;;107988;1252;22443;-79
2023/05/14 00:37:37;;;;;;;29.20;20.80;;;;;;;;;;107891;1248;22579;-79
2023/05/14 00:40:05;;;;;;;25.10;17.40;;;;;;;;;;107858;1248;22544;-78
2023/05/14 00:42:32;;;;;;;27.20;17.60;;;;;;;;;;108197;1248;22567;-78
2023/05/14 00:44:58;;;;;;;30.50;16.70;;;;;;;;;;107934;1248;22658;-77
2023/05/14 00:47:25;;;;;;;34.00;19.50;;;;;;;;;;107954;1248;22532;-78
2023/05/14 00:49:51;;;;;;;30.50;18.80;;;;;;;;;;107901;1253;22540;-80
2023/05/14 00:52:17;;;;;;;30.20;17.90;;;;;;;;;;107919;1248;24185;-78
2023/05/14 00:54:45;;;;;;;32.20;17.70;;;;;;;;;;107772;1254;22521;-78
2023/05/14 00:57:11;;;;;;;28.70;20.40;;;;;;;;;;107806;1250;22521;-78
2023/05/14 00:59:40;;;;;;;28.80;19.80;;;;;;;;;;109961;1249;22263;-78
2023/05/14 01:02:06;;;;;;;;;;;;;;;;;;110987;1247;22485;-78
2023/05/14 01:04:34;;;;;;;26.50;18.50;;;;;;;;;;110998;1252;22392;-77
2023/05/14 01:07:00;;;;;;;26.20;18.30;;;;;;;;;;111001;1247;22767;-78
2023/05/14 01:09:39;;;;;;;25.90;17.90;;;;;;;;;;110998;1247;22408;-75
2023/05/14 01:12:26;;;;;;;25.50;16.50;;;;;;;;;;111023;1247;22781;-75
2023/05/14 01:14:53;;;;;;;24.00;17.90;;;;;;;;;;111014;1247;22509;-78
2023/05/14 01:17:21;;;;;;;27.50;17.30;;;;;;;;;;111007;1247;23086;-76
2023/05/14 01:19:48;;;;;;;27.30;19.20;;;;;;;;;;111014;1247;22927;-75
2023/05/14 01:22:15;;;;;;;24.00;17.30;;;;;;;;;;109401;1247;22526;-79
2023/05/14 01:24:41;;;;;;;25.50;17.20;;;;;;;;;;109078;1247;23075;-78
2023/05/14 01:27:20;;;;;;;25.50;17.30;;;;;;;;;;111028;1247;22407;-79
2023/05/14 01:29:48;;;;;;;33.80;19.80;;;;;;;;;;111033;1247;22134;-79
2023/05/14 01:32:15;;;;;;;22.40;16.50;;;;;;;;;;111003;1248;23000;-79
2023/05/14 01:34:41;;;;;;;29.90;16.90;;;;;;;;;;110179;1247;22524;-79
2023/05/14 01:37:07;;;;;;;29.00;19.80;;;;;;;;;;107721;1248;25423;-77
2023/05/14 01:39:36;;;;;;;25.20;17.90;;;;;;;;;;107916;1248;22540;-77
2023/05/14 01:42:02;;;;;;;;;;;;;;;;;;111014;1250;22364;-78
2023/05/14 01:44:29;;;;;;;26.40;15.60;;;;;;;;;;111017;1247;22962;-78
2023/05/14 01:46:55;;;;;;;22.90;15.10;;;;;;;;;;110842;1250;23066;-75
2023/05/14 01:49:22;;;;;;;28.70;17.20;;;;;;;;;;111004;1247;22229;-77
2023/05/14 01:51:48;;;;;;;26.40;17.00;;;;;;;;;;108246;1247;25497;-77
2023/05/14 01:54:14;;;;;;;25.20;16.70;;;;;;;;;;107892;1247;22524;-77
2023/05/14 01:56:41;;;;;;;24.70;16.60;;;;;;;;;;107932;1247;22575;-77
2023/05/14 01:59:07;;;;;;;28.40;17.40;;;;;;;;;;107791;1253;145803;-78
2023/05/14 02:01:33;;;;;;;24.50;15.60;;;;;;;;;;107904;1248;22948;-77
2023/05/14 02:04:00;;;;;;;26.00;17.30;;;;;;;;;;107722;1250;24380;-79
2023/05/14 02:06:26;;;;;;;24.10;16.00;;;;;;;;;;107731;1250;26377;-77
2023/05/14 02:08:52;;;;;;;27.20;20.90;;;;;;;;;;109080;1250;23036;-78
2023/05/14 02:11:19;;;;;;;26.70;18.40;;;;;;;;;;110890;1250;22269;-77
2023/05/14 02:13:45;;;;;;;25.80;17.60;;;;;;;;;;110922;1250;22271;-78
2023/05/14 02:16:11;;;;;;;31.30;18.30;;;;;;;;;;110912;1249;22306;-77
2023/05/14 02:18:38;;;;;;;34.50;20.70;;;;;;;;;;110889;1250;22101;-78
2023/05/14 02:21:04;;;;;;;30.90;19.40;;;;;;;;;;110879;1250;22464;-77
2023/05/14 02:23:30;;;;;;;24.40;16.90;;;;;;;;;;110164;1247;22578;-77
2023/05/14 02:25:57;;;;;;;28.10;18.00;;;;;;;;;;108031;1248;22542;-78
2023/05/14 02:28:23;;;;;;;25.80;16.20;;;;;;;;;;107996;1248;23157;-77
2023/05/14 02:30:49;;;;;;;27.80;17.70;;;;;;;;;;107890;1248;23332;-77
2023/05/14 02:33:16;;;;;;;29.50;20.90;;;;;;;;;;107930;1247;22575;-77
2023/05/14 02:35:42;;;;;;;28.40;22.40;;;;;;;;;;107935;1247;22532;-77
2023/05/14 02:38:08;;;;;;;23.30;17.00;;;;;;;;;;108382;1247;22280;-77
2023/05/14 02:40:35;;;;;;;31.20;20.00;;;;;;;;;;111033;1247;22314;-78
2023/05/14 02:43:01;;;;;;;31.20;19.60;;;;;;;;;;111011;1247;22244;-77
2023/05/14 02:45:28;;;;;;;29.00;19.40;;;;;;;;;;110992;1247;22358;-78
2023/05/14 02:47:54;;;;;;;25.40;15.90;;;;;;;;;;111031;1247;22739;-78
2023/05/14 02:50:20;;;;;;;23.80;14.90;;;;;;;;;;111000;1247;22734;-77
2023/05/14 02:52:47;;;;;;;24.90;17.40;;;;;;;;;;110279;1247;23240;-78
2023/05/14 02:55:13;;;;;;;33.70;19.80;;;;;;;;;;111007;1247;44412;-77
2023/05/14 02:57:39;;;;;;;28.20;19.60;;;;;;;;;;110852;1250;56489;-78
2023/05/14 03:00:06;;;;;;;24.50;17.90;;;;;;;;;;110863;1250;55443;-78
2023/05/14 03:02:33;;;;;;;25.20;17.60;;;;;;;;;;107929;1247;23349;-79
2023/05/14 03:04:59;;;;;;;27.20;18.00;;;;;;;;;;107895;1248;37513;-77
2023/05/14 03:07:26;;;;;;;27.90;17.40;;;;;;;;;;107819;1247;57420;-77
2023/05/14 03:09:52;;;;;;;32.10;19.80;;;;;;;;;;107712;1247;59152;-77
2023/05/14 03:12:19;;;;;;;25.00;17.50;;;;;;;;;;107863;1252;58997;-78
2023/05/14 03:14:46;;;;;;;29.20;17.70;;;;;;;;;;107939;1248;25978;-76
2023/05/14 03:17:12;;;;;;;25.30;15.30;;;;;;;;;;107870;1247;24332;-78
2023/05/14 03:19:38;;;;;;;17.10;11.70;;;;;;;;;;107606;1247;58622;-77
2023/05/14 03:22:05;;;;;;;21.60;13.00;;;;;;;;;;107880;1247;22515;-76
2023/05/14 03:24:31;;;;;;;20.80;13.20;;;;;;;;;;107904;1247;24403;-79
2023/05/14 03:26:57;;;;;;;19.80;13.30;;;;;;;;;;107837;1247;55603;-77
2023/05/14 03:29:24;;;;;;;23.80;16.50;;;;;;;;;;110053;1247;22217;-78
2023/05/14 03:31:50;;;;;;;23.30;15.30;;;;;;;;;;110997;1247;58835;-78
2023/05/14 03:34:17;;;;;;;24.00;15.40;;;;;;;;;;110952;1247;56434;-77
2023/05/14 03:36:43;;;;;;;31.10;16.40;;;;;;;;;;110158;1247;22559;-79
2023/05/14 03:39:09;;;;;;;22.80;15.90;;;;;;;;;;107734;1247;61230;-79
2023/05/14 03:41:36;;;;;;;24.00;14.30;;;;;;;;;;107934;1247;24695;-77
2023/05/14 03:44:05;;;;;;;24.60;15.20;;;;;;;;;;107856;1248;58805;-77
2023/05/14 03:46:31;;;;;;;23.90;13.80;;;;;;;;;;107857;1247;22636;-78
2023/05/14 03:48:58;;;;;;;22.20;13.40;;;;;;;;;;107743;1247;57749;-76
2023/05/14 03:51:24;;;;;;;21.80;14.80;;;;;;;;;;107830;1247;55812;-78
2023/05/14 03:53:51;;;;;;;18.50;12.60;;;;;;;;;;107937;1247;61336;-78
2023/05/14 03:56:17;;;;;;;18.80;13.20;;;;;;;;;;109690;1247;58151;-78
2023/05/14 03:58:43;;;;;;;19.50;12.10;;;;;;;;;;107725;1247;61212;-77
2023/05/14 04:01:10;;;;;;;23.00;14.10;;;;;;;;;;107941;1247;22651;-77
2023/05/14 04:03:36;;;;;;;18.80;12.50;;;;;;;;;;107788;1250;22511;-78
2023/05/14 04:06:02;;;;;;;19.90;14.10;;;;;;;;;;108476;1250;22538;-79
2023/05/14 04:08:29;;;;;;;19.70;14.40;;;;;;;;;;107747;1251;24363;-78
2023/05/14 04:10:55;;;;;;;21.20;14.10;;;;;;;;;;107664;1251;22945;-78
2023/05/14 04:13:21;;;;;;;23.00;16.10;;;;;;;;;;107711;1250;25265;-77
2023/05/14 04:15:48;;;;;;;23.60;16.30;;;;;;;;;;107707;1252;22605;-78
2023/05/14 04:18:14;;;;;;;25.90;16.70;;;;;;;;;;107711;1250;24246;-78
2023/05/14 04:20:41;;;;;;;22.70;15.50;;;;;;;;;;107751;1250;25477;-77
2023/05/14 04:23:07;;;;;;;20.90;15.20;;;;;;;;;;107739;1250;22534;-77
2023/05/14 04:25:33;;;;;;;28.50;19.50;;;;;;;;;;107658;1250;26362;-78
2023/05/14 04:28:00;;;;;;;28.60;21.50;;;;;;;;;;107718;1249;23131;-79
2023/05/14 04:30:26;;;;;;;34.40;27.20;;;;;;;;;;107875;1248;22995;-78
2023/05/14 04:32:53;;;;;;;41.50;31.00;;;;;;;;;;107886;1247;22529;-77
2023/05/14 04:35:20;;;;;;;36.90;27.20;;;;;;;;;;107962;1247;23211;-77
2023/05/14 04:37:47;;;;;;;33.50;24.30;;;;;;;;;;107984;1247;26050;-78
2023/05/14 04:40:15;;;;;;;24.90;18.80;;;;;;;;;;107913;1253;26461;-79
2023/05/14 04:42:42;;;;;;;22.20;14.80;;;;;;;;;;107869;1248;56975;-79
2023/05/14 04:45:09;;;;;;;20.20;12.70;;;;;;;;;;107773;1247;58946;-77
2023/05/14 04:47:35;;;;;;;21.40;12.90;;;;;;;;;;107977;1247;22549;-79
2023/05/14 04:50:02;;;;;;;19.90;12.60;;;;;;;;;;109169;1247;57002;-79
2023/05/14 04:52:28;;;;;;;22.10;13.00;;;;;;;;;;107827;1247;46835;-77
2023/05/14 04:54:55;;;;;;;20.90;13.40;;;;;;;;;;107893;1247;24987;-79
2023/05/14 04:57:22;;;;;;;18.60;11.10;;;;;;;;;;107815;1250;25319;-77
2023/05/14 04:59:48;;;;;;;15.90;11.00;;;;;;;;;;107734;1250;22675;-79
2023/05/14 05:02:14;;;;;;;16.40;12.10;;;;;;;;;;107865;1247;22511;-79
2023/05/14 05:04:41;;;;;;;19.40;11.10;;;;;;;;;;107890;1248;22520;-77
2023/05/14 05:07:07;;;;;;;15.20;11.00;;;;;;;;;;107919;1247;22543;-79
2023/05/14 05:09:33;;;;;;;17.60;11.00;;;;;;;;;;108613;1248;22547;-77
2023/05/14 05:12:00;;;;;;;18.20;11.20;;;;;;;;;;107882;1250;24277;-77
2023/05/14 05:14:27;;;;;;;18.60;12.10;;;;;;;;;;107949;1247;23321;-78
2023/05/14 05:16:53;;;;;;;18.20;9.80;;;;;;;;;;107861;1248;25347;-79
2023/05/14 05:19:19;;;;;;;19.70;10.80;;;;;;;;;;107887;1250;25319;-77
2023/05/14 05:21:46;;;;;;;17.20;11.60;;;;;;;;;;107863;1252;22537;-79
2023/05/14 05:24:12;;;;;;;14.20;10.70;;;;;;;;;;107861;1247;25332;-78
2023/05/14 05:26:38;;;;;;;14.00;10.10;;;;;;;;;;107837;1247;25197;-77
2023/05/14 05:29:05;;;;;;;15.30;10.90;;;;;;;;;;107867;1247;22533;-77
2023/05/14 05:31:31;;;;;;;14.80;9.90;;;;;;;;;;107874;1250;23126;-78
2023/05/14 05:33:58;;;;;;;17.80;10.70;;;;;;;;;;107913;1247;22524;-77
2023/05/14 05:36:24;;;;;;;14.00;9.20;;;;;;;;;;108538;1247;22537;-79
2023/05/14 05:38:51;;;;;;;14.90;9.50;;;;;;;;;;108057;1247;24173;-79
2023/05/14 05:41:17;;;;;;;13.90;9.00;;;;;;;;;;107897;1248;25965;-78
2023/05/14 05:43:43;;;;;;;11.40;8.20;;;;;;;;;;107682;1248;22524;-79
2023/05/14 05:46:10;;;;;;;13.90;9.30;;;;;;;;;;107916;1247;22568;-79
2023/05/14 05:48:36;;;;;;;12.00;8.30;;;;;;;;;;107972;1250;22552;-79
2023/05/14 05:51:03;;;;;;;12.90;8.20;;;;;;;;;;107894;1247;24186;-77
2023/05/14 05:53:29;;;;;;;13.20;8.00;;;;;;;;;;107738;1247;25380;-78
2023/05/14 05:55:55;;;;;;;16.20;9.50;;;;;;;;;;107883;1248;22540;-78
2023/05/14 05:58:22;;;;;;;12.70;8.80;;;;;;;;;;107875;1247;24195;-78
2023/05/14 06:00:48;;;;;;;10.70;7.90;;;;;;;;;;107851;1247;25216;-77
2023/05/14 06:03:14;;;;;;;15.50;9.60;;;;;;;;;;107734;1253;22530;-78
2023/05/14 06:05:41;;;;;;;13.70;7.90;;;;;;;;;;107705;1251;24258;-80
2023/05/14 06:08:07;;;;;;;9.80;7.60;;;;;;;;;;107765;1249;24208;-77
2023/05/14 06:10:35;;;;;;;13.90;8.70;;;;;;;;;;107710;1250;22903;-78
2023/05/14 06:13:01;;;;;;;11.80;9.10;;;;;;;;;;107689;1250;22700;-77
2023/05/14 06:15:27;;;;;;;14.10;8.90;;;;;;;;;;107755;1248;22522;-77
2023/05/14 06:17:53;;;;;;;14.20;6.80;;;;;;;;;;107718;1250;22531;-79
2023/05/14 06:20:20;;;;;;;9.80;6.60;;;;;;;;;;107682;1249;22554;-77
2023/05/14 06:22:46;;;;;;;9.50;6.90;;;;;;;;;;107759;1250;23668;-78
2023/05/14 06:25:12;;;;;;;8.50;6.40;;;;;;;;;;107698;1251;22511;-78
2023/05/14 06:27:39;;;;;;;13.60;6.20;;;;;;;;;;107703;1250;23025;-80
2023/05/14 06:30:06;;;;;;;9.60;6.50;;;;;;;;;;107641;1247;22518;-78
2023/05/14 06:32:32;;;;;;;8.30;6.00;;;;;;;;;;107850;1250;22567;-78
2023/05/14 06:34:58;;;;;;;8.80;6.60;;;;;;;;;;107877;1247;22600;-78
2023/05/14 06:37:25;;;;;;;8.20;6.20;;;;;;;;;;108362;1247;22585;-75
2023/05/14 06:39:51;;;;;;;10.70;7.60;;;;;;;;;;107890;1247;25261;-75
2023/05/14 06:42:17;;;;;;;9.20;6.40;;;;;;;;;;107854;1253;22520;-75
2023/05/14 06:44:44;;;;;;;10.40;7.40;;;;;;;;;;107665;1247;22708;-78
2023/05/14 06:47:10;;;;;;;9.40;6.60;;;;;;;;;;107740;1247;22587;-78
2023/05/14 06:49:36;;;;;;;10.80;7.60;;;;;;;;;;107856;1247;23277;-77
2023/05/14 06:52:03;;;;;;;11.00;6.80;;;;;;;;;;107888;1247;23375;-77
2023/05/14 06:54:30;;;;;;;10.90;5.80;;;;;;;;;;107875;1247;22614;-78
2023/05/14 06:56:56;;;;;;;11.60;7.60;;;;;;;;;;107648;1247;22522;-77
2023/05/14 06:59:22;;;;;;;11.30;6.60;;;;;;;;;;108106;1247;22532;-79
2023/05/14 07:01:49;;;;;;;11.30;7.30;;;;;;;;;;107915;1247;22515;-78
2023/05/14 07:04:15;;;;;;;7.90;6.10;;;;;;;;;;107839;1247;22527;-78
2023/05/14 07:06:41;;;;;;;10.30;6.00;;;;;;;;;;108161;1247;25552;-77
2023/05/14 07:09:08;;;;;;;6.80;5.30;;;;;;;;;;107906;1250;22548;-77
2023/05/14 07:11:34;;;;;;;6.80;5.10;;;;;;;;;;107879;1247;22532;-79
2023/05/14 07:14:00;;;;;;;9.80;8.50;;;;;;;;;;107896;1247;25347;-77
2023/05/14 07:16:27;;;;;;;12.90;7.30;;;;;;;;;;107907;1248;22572;-77
2023/05/14 07:18:53;;;;;;;8.30;6.40;;;;;;;;;;107875;1252;22548;-79
2023/05/14 07:21:19;;;;;;;6.80;5.00;;;;;;;;;;107889;1247;24211;-77
2023/05/14 07:23:46;;;;;;;8.70;5.40;;;;;;;;;;107859;1247;24435;-77
2023/05/14 07:26:12;;;;;;;7.30;5.50;;;;;;;;;;107854;1248;24240;-79
2023/05/14 07:28:39;;;;;;;5.90;4.00;;;;;;;;;;107712;1251;25352;-77
2023/05/14 07:31:07;;;;;;;3.40;3.00;;;;;;;;;;107903;1247;22521;-79
2023/05/14 07:33:34;;;;;;;5.30;4.00;;;;;;;;;;107946;1247;22448;-78
2023/05/14 07:36:01;;;;;;;4.60;3.60;;;;;;;;;;107884;1250;22535;-79
2023/05/14 07:38:27;;;;;;;11.80;4.80;;;;;;;;;;107873;1247;22525;-80
2023/05/14 07:40:53;;;;;;;6.40;3.30;;;;;;;;;;107870;1247;25303;-80
2023/05/14 07:43:20;;;;;;;7.00;4.00;;;;;;;;;;107681;1253;22517;-78
2023/05/14 07:45:46;;;;;;;6.60;4.00;;;;;;;;;;107875;1250;22511;-79
2023/05/14 07:48:13;;;;;;;8.90;3.60;;;;;;;;;;107827;1247;22515;-78
2023/05/14 07:50:39;;;;;;;4.00;3.20;;;;;;;;;;107850;1248;25272;-80
2023/05/14 07:53:06;;;;;;;3.90;3.00;;;;;;;;;;107809;1247;25463;-80
2023/05/14 07:55:32;;;;;;;3.20;2.70;;;;;;;;;;107901;1248;22518;-78
2023/05/14 07:57:58;;;;;;;6.90;4.40;;;;;;;;;;107921;1247;22527;-78
2023/05/14 08:00:25;;;;;;;5.50;2.70;;;;;;;;;;107939;1252;23661;-79
2023/05/14 08:02:51;;;;;;;2.60;2.20;;;;;;;;;;107760;1250;22514;-78
2023/05/14 08:05:17;;;;;;;2.90;2.40;;;;;;;;;;107705;1250;25352;-78
2023/05/14 08:07:44;;;;;;;4.70;2.20;;;;;;;;;;107655;1253;22617;-78
2023/05/14 08:10:10;;;;;;;4.40;2.70;;;;;;;;;;107745;1250;22530;-78
2023/05/14 08:12:37;;;;;;;4.90;2.70;;;;;;;;;;107690;1250;22970;-79
2023/05/14 08:15:06;;;;;;;3.50;2.40;;;;;;;;;;107749;1250;22911;-80
2023/05/14 08:17:32;;;;;;;4.20;2.10;;;;;;;;;;107694;1250;56328;-78
2023/05/14 08:19:59;;;;;;;3.60;2.50;;;;;;;;;;107769;1250;25863;-79
2023/05/14 08:22:25;;;;;;;9.00;2.50;;;;;;;;;;107708;1250;25347;-80
2023/05/14 08:24:51;;;;;;;2.70;1.60;;;;;;;;;;107739;1253;58528;-79
2023/05/14 08:27:18;;;;;;;3.80;2.30;;;;;;;;;;107269;1253;59116;-79
2023/05/14 08:29:46;;;;;;;3.50;2.20;;;;;;;;;;106958;1247;61215;-78
2023/05/14 08:32:12;;;;;;;2.80;2.10;;;;;;;;;;107068;1247;61356;-75
2023/05/14 08:34:39;;;;;;;4.00;2.20;;;;;;;;;;107089;1247;61192;-80
2023/05/14 08:37:05;;;;;;;4.20;1.90;;;;;;;;;;107047;1248;61215;-80
2023/05/14 08:39:31;;;;;;;4.70;3.00;;;;;;;;;;107028;1247;61317;-80
2023/05/14 08:41:57;;;;;;;4.10;2.30;;;;;;;;;;106999;1247;61263;-78
2023/05/14 08:44:27;;;;;;;3.30;2.10;;;;;;;;;;106821;1254;61164;-78
2023/05/14 08:46:53;;;;;;;3.20;2.30;;;;;;;;;;107058;1252;61227;-78
2023/05/14 08:49:36;;;;;;;2.80;1.90;;;;;;;;;;107016;1247;61234;-80
2023/05/14 08:52:02;;;;;;;2.80;1.80;;;;;;;;;;107079;1247;61920;-78
2023/05/14 08:54:31;;;;;;;2.80;2.20;;;;;;;;;;107321;1250;61190;-78
2023/05/14 08:56:58;;;;;;;3.90;1.90;;;;;;;;;;107446;1253;61138;-78
2023/05/14 08:59:24;;;;;;;14.50;3.40;;;;;;;;;;107675;1250;22609;-78
2023/05/14 09:01:51;;;;;;;5.30;2.70;;;;;;;;;;107851;1247;24153;-78
2023/05/14 09:04:21;;;;;;;3.10;2.50;;;;;;;;;;107695;1247;61250;-80
2023/05/14 09:06:49;;;;;;;3.00;2.30;;;;;;;;;;107891;1253;22518;-80
2023/05/14 09:09:15;;;;;;;4.30;2.20;;;;;;;;;;107862;1250;23052;-80
2023/05/14 09:11:42;;;;;;;5.30;2.40;;;;;;;;;;107859;1247;25294;-80
2023/05/14 09:14:08;;;;;;;7.80;2.50;;;;;;;;;;107794;1248;22515;-80
2023/05/14 09:16:35;;;;;;;4.40;2.30;;;;;;;;;;107930;1247;22520;-80
2023/05/14 09:19:03;;;;;;;5.40;2.60;;;;;;;;;;107859;1247;27177;-78
2023/05/14 09:21:30;;;;;;;3.40;2.30;;;;;;;;;;107896;1247;22514;-78
2023/05/14 09:23:56;;;;;;;3.00;2.00;;;;;;;;;;107954;1248;46891;-79
2023/05/14 09:26:24;;;;;;;8.00;2.60;;;;;;;;;;107854;1252;23158;-80
2023/05/14 09:28:52;;;;;;;3.70;2.10;;;;;;;;;;107862;1248;23385;-78
2023/05/14 09:31:18;;;;;;;3.80;1.80;;;;;;;;;;107871;1247;23712;-81
2023/05/14 09:33:54;;;;;;;3.80;1.90;;;;;;;;;;107716;1247;22628;-78
2023/05/14 09:36:20;;;;;;;4.50;2.30;;;;;;;;;;107779;1247;61221;-78
2023/05/14 09:38:46;;;;;;;4.10;2.20;;;;;;;;;;107923;1248;22528;-79
2023/05/14 09:41:13;;;;;;;4.00;2.10;;;;;;;;;;107918;1247;22515;-78
2023/05/14 09:43:39;;;;;;;3.70;2.20;;;;;;;;;;109719;1247;23025;-80
2023/05/14 09:46:06;;;;;;;6.10;2.50;;;;;;;;;;107949;1247;25364;-78
2023/05/14 09:48:32;;;;;;;2.80;2.30;;;;;;;;;;107840;1253;24954;-80
2023/05/14 09:50:58;;;;;;;3.90;2.30;;;;;;;;;;107887;1248;23178;-81
2023/05/14 09:53:25;;;;;;;4.80;2.30;;;;;;;;;;107881;1251;22528;-78
2023/05/14 09:55:51;;;;;;;6.80;2.30;;;;;;;;;;107912;1247;22524;-78
2023/05/14 09:58:17;;;;;;;3.00;2.20;;;;;;;;;;107879;1248;24204;-78
2023/05/14 10:00:44;;;;;;;3.10;2.10;;;;;;;;;;107906;1250;25419;-79
2023/05/14 10:03:12;;;;;;;2.70;2.00;;;;;;;;;;107711;1252;22518;-80
2023/05/14 10:05:39;;;;;;;3.20;1.70;;;;;;;;;;107698;1251;22526;-78
2023/05/14 10:08:11;;;;;;;3.80;2.10;;;;;;;;;;107708;1250;25504;-78
2023/05/14 10:10:37;;;;;;;2.50;1.70;;;;;;;;;;107687;1249;22524;-80
2023/05/14 10:13:05;;;;;;;3.60;2.50;;;;;;;;;;107665;1250;23034;-80
2023/05/14 10:15:34;;;;;;;4.50;2.40;;;;;;;;;;107692;1255;22544;-80
2023/05/14 10:18:02;;;;;;;3.40;2.20;;;;;;;;;;107645;1251;22556;-79
2023/05/14 10:20:28;;;;;;;23.00;18.30;;;;;;;;;;107686;1253;22557;-80
2023/05/14 10:22:55;;;;;;;5.30;4.20;;;;;;;;;;107637;1251;22515;-80
2023/05/14 10:25:21;;;;;;;2.50;1.60;;;;;;;;;;107650;1250;25346;-78
2023/05/14 10:27:48;;;;;;;2.70;2.10;;;;;;;;;;107683;1249;22669;-78
2023/05/14 10:30:14;;;;;;;6.30;1.90;;;;;;;;;;107857;1248;24420;-80
2023/05/14 10:32:42;;;;;;;2.20;1.90;;;;;;;;;;107851;1248;22563;-78
2023/05/14 10:35:19;;;;;;;2.30;1.60;;;;;;;;;;107858;1247;22658;-78
2023/05/14 10:37:45;;;;;;;4.90;2.00;;;;;;;;;;107930;1252;22514;-78
2023/05/14 10:40:12;;;;;;;13.40;2.50;;;;;;;;;;107866;1247;22683;-80
2023/05/14 10:42:39;;;;;;;2.50;1.60;;;;;;;;;;107716;1248;22563;-78
2023/05/14 10:45:07;;;;;;;2.10;1.50;;;;;;;;;;107915;1247;26597;-78
2023/05/14 10:47:34;;;;;;;2.30;1.50;;;;;;;;;;108163;1248;22720;-78
2023/05/14 10:50:07;;;;;;;4.10;2.10;;;;;;;;;;107914;1248;24565;-78
2023/05/14 10:52:34;;;;;;;5.70;1.70;;;;;;;;;;107867;1247;22518;-80
2023/05/14 10:55:01;;;;;;;7.20;1.40;;;;;;;;;;107876;1253;46918;-79
2023/05/14 10:57:28;;;;;;;3.80;1.50;;;;;;;;;;107768;1251;22518;-80
2023/05/14 10:59:55;;;;;;;4.70;1.60;;;;;;;;;;107658;1250;23655;-79
2023/05/14 11:02:26;;;;;;;2.90;1.80;;;;;;;;;;107651;1256;22525;-78
2023/05/14 11:04:57;;;;;;;3.20;1.50;;;;;;;;;;107879;1248;24333;-79
2023/05/14 11:07:26;;;;;;;2.60;1.40;;;;;;;;;;108138;1252;25332;-79
2023/05/14 11:09:52;;;;;;;2.30;1.60;;;;;;;;;;107857;1248;22602;-80
2023/05/14 11:12:19;;;;;;;2.10;1.50;;;;;;;;;;107700;1248;22546;-80
2023/05/14 11:14:45;;;;;;;2.00;1.50;;;;;;;;;;107902;1252;25204;-78
2023/05/14 11:17:12;;;;;;;1.60;1.20;;;;;;;;;;107669;1247;22534;-80
2023/05/14 11:19:38;;;;;;;2.40;1.40;;;;;;;;;;107872;1250;25358;-80
2023/05/14 11:22:05;;;;;;;4.80;1.80;;;;;;;;;;107858;1252;22535;-80
2023/05/14 11:24:31;;;;;;;3.30;2.00;;;;;;;;;;107806;1249;58381;-79
2023/05/14 11:26:58;;;;;;;3.00;1.80;;;;;;;;;;107876;1251;22566;-77
2023/05/14 11:29:24;;;;;;;3.10;1.40;;;;;;;;;;107954;1253;22518;-81
2023/05/14 11:31:50;;;;;;;3.10;1.70;;;;;;;;;;107885;1247;22577;-78
2023/05/14 11:34:17;;;;;;;2.30;1.50;;;;;;;;;;110622;1248;22815;-80
2023/05/14 11:36:43;;;;;;;2.30;1.80;;;;;;;;;;108095;1248;45640;-78
2023/05/14 11:39:16;;;;;;;3.80;2.20;;;;;;;;;;107868;1247;22522;-80
2023/05/14 11:41:43;;;;;;;2.80;1.90;;;;;;;;;;107899;1248;23232;-78
2023/05/14 11:44:09;;;;;;;4.50;1.80;;;;;;;;;;107886;1248;22515;-78
2023/05/14 11:46:35;;;;;;;2.60;1.70;;;;;;;;;;107857;1252;22532;-78
2023/05/14 11:49:08;;;;;;;2.50;1.90;;;;;;;;;;107906;1253;22534;-78
2023/05/14 11:51:34;;;;;;;1.80;1.50;;;;;;;;;;107884;1252;24272;-81
2023/05/14 11:54:02;;;;;;;2.50;1.70;;;;;;;;;;107891;1247;24167;-78
2023/05/14 11:56:29;;;;;;;5.20;2.10;;;;;;;;;;107693;1247;25366;-79
2023/05/14 11:58:56;;;;;;;2.50;1.70;;;;;;;;;;107864;1250;24830;-79
2023/05/14 12:01:22;;;;;;;1.90;1.60;;;;;;;;;;107802;1250;57781;-78
2023/05/14 12:03:49;;;;;;;3.10;1.90;;;;;;;;;;107685;1251;25301;-79
2023/05/14 12:06:15;;;;;;;2.60;1.80;;;;;;;;;;107722;1253;22514;-79
2023/05/14 12:08:41;;;;;;;2.90;2.00;;;;;;;;;;107669;1251;22533;-78
2023/05/14 12:11:08;;;;;;;3.00;1.90;;;;;;;;;;107653;1253;23004;-80
2023/05/14 12:13:35;;;;;;;4.10;1.50;;;;;;;;;;107682;1250;23145;-78
2023/05/14 12:16:01;;;;;;;2.10;1.30;;;;;;;;;;107681;1250;24267;-79
2023/05/14 12:18:28;;;;;;;5.00;1.60;;;;;;;;;;107645;1250;23617;-79
2023/05/14 12:20:54;;;;;;;4.30;1.60;;;;;;;;;;107604;1250;36750;-78
2023/05/14 12:23:25;;;;;;;1.90;1.30;;;;;;;;;;107667;1253;25315;-78
2023/05/14 12:25:51;;;;;;;4.40;1.60;;;;;;;;;;107691;1251;26671;-80
2023/05/14 12:28:18;;;;;;;2.00;1.40;;;;;;;;;;107730;1253;22550;-78
2023/05/14 12:30:48;;;;;;;2.30;1.60;;;;;;;;;;107916;1247;24238;-80
2023/05/14 12:33:15;;;;;;;4.40;2.20;;;;;;;;;;108556;1248;25438;-80
2023/05/14 12:35:41;;;;;;;2.50;1.50;;;;;;;;;;107893;1247;26278;-79
2023/05/14 12:38:08;;;;;;;1.80;1.30;;;;;;;;;;107886;1247;22532;-77
2023/05/14 12:40:35;;;;;;;5.20;3.80;;;;;;;;;;107846;1248;22553;-77
2023/05/14 12:43:01;;;;;;;3.20;1.50;;;;;;;;;;107904;1253;22520;-78
2023/05/14 12:45:28;;;;;;;2.70;1.60;;;;;;;;;;107809;1247;22531;-77
2023/05/14 12:47:55;;;;;;;5.00;1.50;;;;;;;;;;107822;1247;24359;-79
2023/05/14 12:50:21;;;;;;;4.30;1.90;;;;;;;;;;107878;1247;22544;-77
2023/05/14 12:52:47;;;;;;;4.20;1.40;;;;;;;;;;107885;1247;22946;-79
2023/05/14 12:55:14;;;;;;;5.30;1.40;;;;;;;;;;107834;1253;25210;-78
2023/05/14 12:57:40;;;;;;;5.00;1.80;;;;;;;;;;107773;1250;27723;-77
2023/05/14 13:00:09;;;;;;;3.60;1.50;;;;;;;;;;107579;1251;23122;-77
2023/05/14 13:02:35;;;;;;;3.50;1.90;;;;;;;;;;108222;1248;24189;-77
2023/05/14 13:05:02;;;;;;;3.90;2.80;;;;;;;;;;107825;1247;22533;-77
2023/05/14 13:07:29;;;;;;;2.80;2.00;;;;;;;;;;107947;1248;22563;-79
2023/05/14 13:09:55;;;;;;;2.20;1.50;;;;;;;;;;107778;1248;22519;-77
2023/05/14 13:12:22;;;;;;;2.90;1.70;;;;;;;;;;107838;1247;23067;-77
2023/05/14 13:14:48;;;;;;;4.30;1.80;;;;;;;;;;107715;1248;25290;-78
2023/05/14 13:17:15;;;;;;;5.80;2.90;;;;;;;;;;107908;1248;22519;-77
2023/05/14 13:19:41;;;;;;;2.80;1.70;;;;;;;;;;107880;1248;25324;-77
2023/05/14 13:22:07;;;;;;;4.00;2.00;;;;;;;;;;107853;1252;25213;-78
2023/05/14 13:24:34;;;;;;;7.00;2.80;;;;;;;;;;107851;1248;25297;-77
2023/05/14 13:27:00;;;;;;;9.60;2.40;;;;;;;;;;107657;1254;22535;-77
2023/05/14 13:29:28;;;;;;;6.70;2.70;;;;;;;;;;107833;1247;22524;-77
2023/05/14 13:31:54;;;;;;;5.80;2.90;;;;;;;;;;107944;1247;22526;-78
2023/05/14 13:34:21;;;;;;;6.50;4.30;;;;;;;;;;107895;1247;22514;-77
2023/05/14 13:36:48;;;;;;;5.30;3.90;;;;;;;;;;107929;1248;22520;-79
2023/05/14 13:39:14;;;;;;;2.30;1.70;;;;;;;;;;107887;1247;25486;-77
2023/05/14 13:41:41;;;;;;;4.80;1.10;;;;;;;;;;107830;1248;22523;-78
2023/05/14 13:44:07;;;;;;;10.10;2.20;;;;;;;;;;107848;1253;22551;-76
2023/05/14 13:46:33;;;;;;;3.70;1.30;;;;;;;;;;107920;1247;22551;-77
2023/05/14 13:49:00;;;;;;;2.70;1.60;;;;;;;;;;107840;1247;51212;-76
2023/05/14 13:51:26;;;;;;;3.20;2.00;;;;;;;;;;107831;1248;24206;-78
2023/05/14 13:53:52;;;;;;;4.60;2.80;;;;;;;;;;107863;1247;56289;-76
2023/05/14 13:56:20;;;;;;;4.60;3.00;;;;;;;;;;107818;1252;24549;-76
2023/05/14 13:58:47;;;;;;;5.60;3.30;;;;;;;;;;107505;1251;141883;-76
2023/05/14 14:01:13;;;;;;;6.20;4.20;;;;;;;;;;107644;1251;24214;-78
2023/05/14 14:03:40;;;;;;;7.60;4.20;;;;;;;;;;107875;1247;24308;-78
2023/05/14 14:06:06;;;;;;;7.10;3.40;;;;;;;;;;107865;1248;23105;-79
2023/05/14 14:08:33;;;;;;;5.10;3.10;;;;;;;;;;107931;1248;22992;-76
2023/05/14 14:10:59;;;;;;;3.80;1.80;;;;;;;;;;107890;1248;22950;-78
2023/05/14 14:13:28;;;;;;;2.80;1.50;;;;;;;;;;107639;1247;22519;-78
2023/05/14 14:15:54;;;;;;;5.00;2.60;;;;;;;;;;107879;1247;26280;-76